sensor_id;sensor_type;location;lat;lon;timestamp;temperature;humidity
21811;DHT22;11067;48.788;9.208;2022-12-18T00:01:35;-7.60;99.90
21811;DHT22;11067;48.788;9.208;2022-12-18T00:04:03;-7.60;99.90
21811;DHT22;11067;48.788;9.208;2022-12-18T00:06:30;-7.60;99.90
21811;DHT22;11067;48.788;9.208;2022-12-18T00:08:57;-7.60;99.90
21811;DHT22;11067;48.788;9.208;2022-12-18T00:11:24;-7.60;99.90
21811;DHT22;11067;48.788;9.208;2022-12-18T00:13:50;-7.70;99.90
21811;DHT22;11067;48.788;9.208;2022-12-18T00:16:21;-7.70;99.90
21811;DHT22;11067;48.788;9.208;2022-12-18T00:18:48;-7.70;99.90
21811;DHT22;11067;48.788;9.208;2022-12-18T00:21:15;-7.60;99.90
21811;DHT22;11067;48.788;9.208;2022-12-18T00:23:42;-7.60;99.90
21811;DHT22;11067;48.788;9.208;2022-12-18T00:26:11;-7.70;99.90
21811;DHT22;11067;48.788;9.208;2022-12-18T00:28:37;-7.60;99.90
21811;DHT22;11067;48.788;9.208;2022-12-18T00:31:05;-7.60;99.90
21811;DHT22;11067;48.788;9.208;2022-12-18T00:33:31;-7.60;99.90
21811;DHT22;11067;48.788;9.208;2022-12-18T00:36:16;-7.60;99.90
21811;DHT22;11067;48.788;9.208;2022-12-18T00:38:43;-7.60;99.90
21811;DHT22;11067;48.788;9.208;2022-12-18T00:41:10;-7.70;99.90
21811;DHT22;11067;48.788;9.208;2022-12-18T00:43:37;-7.70;99.90
21811;DHT22;11067;48.788;9.208;2022-12-18T00:46:02;-7.70;99.90
21811;DHT22;11067;48.788;9.208;2022-12-18T00:48:28;-7.70;99.90
21811;DHT22;11067;48.788;9.208;2022-12-18T00:50:54;-7.70;99.90
21811;DHT22;11067;48.788;9.208;2022-12-18T00:53:19;-7.70;99.90
21811;DHT22;11067;48.788;9.208;2022-12-18T00:55:45;-7.70;99.90
21811;DHT22;11067;48.788;9.208;2022-12-18T00:58:13;-7.70;99.90
21811;DHT22;11067;48.788;9.208;2022-12-18T01:00:39;-7.70;99.90
21811;DHT22;11067;48.788;9.208;2022-12-18T01:03:05;-7.80;99.90
21811;DHT22;11067;48.788;9.208;2022-12-18T01:05:30;-7.80;99.90
21811;DHT22;11067;48.788;9.208;2022-12-18T01:07:56;-7.80;99.90
21811;DHT22;11067;48.788;9.208;2022-12-18T01:10:23;-7.70;99.90
21811;DHT22;11067;48.788;9.208;2022-12-18T01:12:48;-7.80;99.90
21811;DHT22;11067;48.788;9.208;2022-12-18T01:15:15;-7.80;99.90
21811;DHT22;11067;48.788;9.208;2022-12-18T01:17:41;-7.80;99.90
21811;DHT22;11067;48.788;9.208;2022-12-18T01:20:07;-7.70;99.90
21811;DHT22;11067;48.788;9.208;2022-12-18T01:22:34;-7.80;99.90
21811;DHT22;11067;48.788;9.208;2022-12-18T01:24:59;-7.80;99.90
21811;DHT22;11067;48.788;9.208;2022-12-18T01:27:25;-7.80;99.90
21811;DHT22;11067;48.788;9.208;2022-12-18T01:29:51;-7.80;99.90
21811;DHT22;11067;48.788;9.208;2022-12-18T01:32:16;-7.70;99.90
21811;DHT22;11067;48.788;9.208;2022-12-18T01:34:42;-7.80;99.90
21811;DHT22;11067;48.788;9.208;2022-12-18T01:37:07;-7.90;99.90
21811;DHT22;11067;48.788;9.208;2022-12-18T01:39:33;-7.90;99.90
21811;DHT22;11067;48.788;9.208;2022-12-18T01:42:00;-7.80;99.90
21811;DHT22;11067;48.788;9.208;2022-12-18T01:47:45;-7.80;99.90
21811;DHT22;11067;48.788;9.208;2022-12-18T01:55:49;-7.90;99.90
21811;DHT22;11067;48.788;9.208;2022-12-18T01:58:18;-7.90;99.90
21811;DHT22;11067;48.788;9.208;2022-12-18T02:00:43;-7.80;99.90
21811;DHT22;11067;48.788;9.208;2022-12-18T02:03:10;-7.90;99.90
21811;DHT22;11067;48.788;9.208;2022-12-18T02:08:32;-7.80;99.90
21811;DHT22;11067;48.788;9.208;2022-12-18T02:13:46;-7.80;99.90
21811;DHT22;11067;48.788;9.208;2022-12-18T02:16:21;-7.80;99.90
21811;DHT22;11067;48.788;9.208;2022-12-18T02:18:55;-7.70;99.90
21811;DHT22;11067;48.788;9.208;2022-12-18T02:26:53;-7.70;99.90
21811;DHT22;11067;48.788;9.208;2022-12-18T02:29:24;-7.60;99.90
21811;DHT22;11067;48.788;9.208;2022-12-18T02:32:00;-7.60;99.90
21811;DHT22;11067;48.788;9.208;2022-12-18T02:34:30;-7.60;99.90
21811;DHT22;11067;48.788;9.208;2022-12-18T02:36:57;-7.60;99.90
21811;DHT22;11067;48.788;9.208;2022-12-18T02:39:25;-7.70;99.90
21811;DHT22;11067;48.788;9.208;2022-12-18T02:41:51;-7.70;99.90
21811;DHT22;11067;48.788;9.208;2022-12-18T02:44:17;-7.70;99.90
21811;DHT22;11067;48.788;9.208;2022-12-18T02:46:45;-7.70;99.90
21811;DHT22;11067;48.788;9.208;2022-12-18T02:52:01;-7.70;99.90
21811;DHT22;11067;48.788;9.208;2022-12-18T02:54:39;-7.70;99.90
21811;DHT22;11067;48.788;9.208;2022-12-18T03:00:06;-7.70;99.90
21811;DHT22;11067;48.788;9.208;2022-12-18T03:02:44;-7.70;99.90
21811;DHT22;11067;48.788;9.208;2022-12-18T03:07:45;-7.80;99.90
21811;DHT22;11067;48.788;9.208;2022-12-18T03:10:15;-7.80;99.90
21811;DHT22;11067;48.788;9.208;2022-12-18T03:12:47;-7.70;99.90
21811;DHT22;11067;48.788;9.208;2022-12-18T03:15:22;-7.80;99.90
21811;DHT22;11067;48.788;9.208;2022-12-18T03:18:26;-7.70;99.90
21811;DHT22;11067;48.788;9.208;2022-12-18T03:20:52;-7.70;99.90
21811;DHT22;11067;48.788;9.208;2022-12-18T03:23:22;-7.80;99.90
21811;DHT22;11067;48.788;9.208;2022-12-18T03:25:52;-7.80;99.90
21811;DHT22;11067;48.788;9.208;2022-12-18T03:28:22;-7.70;99.90
21811;DHT22;11067;48.788;9.208;2022-12-18T03:30:50;-7.80;99.90
21811;DHT22;11067;48.788;9.208;2022-12-18T03:33:23;-7.90;99.90
21811;DHT22;11067;48.788;9.208;2022-12-18T03:35:49;-7.90;99.90
21811;DHT22;11067;48.788;9.208;2022-12-18T03:38:15;-8.00;99.90
21811;DHT22;11067;48.788;9.208;2022-12-18T03:40:50;-7.90;99.90
21811;DHT22;11067;48.788;9.208;2022-12-18T03:43:26;-7.90;99.90
21811;DHT22;11067;48.788;9.208;2022-12-18T03:46:02;-7.90;99.90
21811;DHT22;11067;48.788;9.208;2022-12-18T03:48:45;-7.90;99.90
21811;DHT22;11067;48.788;9.208;2022-12-18T03:51:25;-8.00;99.90
21811;DHT22;11067;48.788;9.208;2022-12-18T03:53:53;-8.00;99.90
21811;DHT22;11067;48.788;9.208;2022-12-18T03:56:22;-7.90;99.90
21811;DHT22;11067;48.788;9.208;2022-12-18T03:58:50;-7.80;99.90
21811;DHT22;11067;48.788;9.208;2022-12-18T04:01:18;-7.90;99.90
21811;DHT22;11067;48.788;9.208;2022-12-18T04:03:47;-7.90;99.90
21811;DHT22;11067;48.788;9.208;2022-12-18T04:06:15;-7.90;99.90
21811;DHT22;11067;48.788;9.208;2022-12-18T04:08:41;-7.90;99.90
21811;DHT22;11067;48.788;9.208;2022-12-18T04:11:06;-7.80;99.90
21811;DHT22;11067;48.788;9.208;2022-12-18T04:13:35;-7.90;99.90
21811;DHT22;11067;48.788;9.208;2022-12-18T04:16:01;-7.90;99.90
21811;DHT22;11067;48.788;9.208;2022-12-18T04:18:26;-7.90;99.90
21811;DHT22;11067;48.788;9.208;2022-12-18T04:20:52;-7.90;99.90
21811;DHT22;11067;48.788;9.208;2022-12-18T04:23:18;-8.00;99.90
21811;DHT22;11067;48.788;9.208;2022-12-18T04:25:43;-8.00;99.90
21811;DHT22;11067;48.788;9.208;2022-12-18T04:28:09;-8.00;99.90
21811;DHT22;11067;48.788;9.208;2022-12-18T04:30:34;-7.90;99.90
21811;DHT22;11067;48.788;9.208;2022-12-18T04:33:00;-7.90;99.90
21811;DHT22;11067;48.788;9.208;2022-12-18T04:35:25;-7.90;99.90
21811;DHT22;11067;48.788;9.208;2022-12-18T04:37:51;-7.80;99.90
21811;DHT22;11067;48.788;9.208;2022-12-18T04:40:17;-7.60;99.90
21811;DHT22;11067;48.788;9.208;2022-12-18T04:42:42;-7.60;99.90
21811;DHT22;11067;48.788;9.208;2022-12-18T04:45:08;-7.50;99.90
21811;DHT22;11067;48.788;9.208;2022-12-18T04:47:34;-7.30;99.90
21811;DHT22;11067;48.788;9.208;2022-12-18T04:49:59;-7.40;99.90
21811;DHT22;11067;48.788;9.208;2022-12-18T04:52:25;-7.40;99.90
21811;DHT22;11067;48.788;9.208;2022-12-18T04:54:50;-7.50;99.90
21811;DHT22;11067;48.788;9.208;2022-12-18T04:57:16;-7.50;99.90
21811;DHT22;11067;48.788;9.208;2022-12-18T04:59:43;-7.50;99.90
21811;DHT22;11067;48.788;9.208;2022-12-18T05:02:09;-7.30;99.90
21811;DHT22;11067;48.788;9.208;2022-12-18T05:04:34;-7.30;99.90
21811;DHT22;11067;48.788;9.208;2022-12-18T05:07:00;-7.40;99.90
21811;DHT22;11067;48.788;9.208;2022-12-18T05:09:25;-7.50;99.90
21811;DHT22;11067;48.788;9.208;2022-12-18T05:11:51;-7.60;99.90
21811;DHT22;11067;48.788;9.208;2022-12-18T05:14:16;-7.70;99.90
21811;DHT22;11067;48.788;9.208;2022-12-18T05:16:42;-7.80;99.90
21811;DHT22;11067;48.788;9.208;2022-12-18T05:19:08;-7.80;99.90
21811;DHT22;11067;48.788;9.208;2022-12-18T05:21:33;-7.80;99.90
21811;DHT22;11067;48.788;9.208;2022-12-18T05:23:59;-7.80;99.90
21811;DHT22;11067;48.788;9.208;2022-12-18T05:26:24;-7.90;99.90
21811;DHT22;11067;48.788;9.208;2022-12-18T05:28:50;-7.90;99.90
21811;DHT22;11067;48.788;9.208;2022-12-18T05:31:15;-7.90;99.90
21811;DHT22;11067;48.788;9.208;2022-12-18T05:33:41;-8.00;99.90
21811;DHT22;11067;48.788;9.208;2022-12-18T05:36:08;-7.90;99.90
21811;DHT22;11067;48.788;9.208;2022-12-18T05:38:36;-8.00;99.90
21811;DHT22;11067;48.788;9.208;2022-12-18T05:41:02;-7.90;99.90
21811;DHT22;11067;48.788;9.208;2022-12-18T05:43:28;-7.90;99.90
21811;DHT22;11067;48.788;9.208;2022-12-18T05:45:54;-8.00;99.90
21811;DHT22;11067;48.788;9.208;2022-12-18T05:48:21;-8.00;99.90
21811;DHT22;11067;48.788;9.208;2022-12-18T05:50:48;-8.00;99.90
21811;DHT22;11067;48.788;9.208;2022-12-18T05:53:15;-7.90;99.90
21811;DHT22;11067;48.788;9.208;2022-12-18T05:55:43;-7.90;99.90
21811;DHT22;11067;48.788;9.208;2022-12-18T05:58:09;-8.00;99.90
21811;DHT22;11067;48.788;9.208;2022-12-18T06:00:38;-8.10;99.90
21811;DHT22;11067;48.788;9.208;2022-12-18T06:03:06;-8.10;99.90
21811;DHT22;11067;48.788;9.208;2022-12-18T06:05:35;-8.30;99.90
21811;DHT22;11067;48.788;9.208;2022-12-18T06:08:02;-8.50;99.90
21811;DHT22;11067;48.788;9.208;2022-12-18T06:10:28;-8.60;99.90
21811;DHT22;11067;48.788;9.208;2022-12-18T06:12:53;-8.60;99.90
21811;DHT22;11067;48.788;9.208;2022-12-18T06:15:19;-8.70;99.90
21811;DHT22;11067;48.788;9.208;2022-12-18T06:17:44;-8.80;99.90
21811;DHT22;11067;48.788;9.208;2022-12-18T06:20:10;-8.80;99.90
21811;DHT22;11067;48.788;9.208;2022-12-18T06:22:35;-8.90;99.90
21811;DHT22;11067;48.788;9.208;2022-12-18T06:25:01;-9.00;99.90
21811;DHT22;11067;48.788;9.208;2022-12-18T06:27:26;-9.10;99.90
21811;DHT22;11067;48.788;9.208;2022-12-18T06:29:52;-9.10;99.90
21811;DHT22;11067;48.788;9.208;2022-12-18T06:32:17;-9.10;99.90
21811;DHT22;11067;48.788;9.208;2022-12-18T06:34:43;-9.10;99.90
21811;DHT22;11067;48.788;9.208;2022-12-18T06:37:08;-9.20;99.90
21811;DHT22;11067;48.788;9.208;2022-12-18T06:39:34;-9.20;99.90
21811;DHT22;11067;48.788;9.208;2022-12-18T06:41:59;-9.20;99.90
21811;DHT22;11067;48.788;9.208;2022-12-18T06:44:25;-9.10;99.90
21811;DHT22;11067;48.788;9.208;2022-12-18T06:46:51;-9.20;99.90
21811;DHT22;11067;48.788;9.208;2022-12-18T06:49:16;-9.20;99.90
21811;DHT22;11067;48.788;9.208;2022-12-18T06:51:42;-9.20;99.90
21811;DHT22;11067;48.788;9.208;2022-12-18T06:54:07;-9.20;99.90
21811;DHT22;11067;48.788;9.208;2022-12-18T06:56:33;-9.10;99.90
21811;DHT22;11067;48.788;9.208;2022-12-18T06:58:59;-9.20;99.90
21811;DHT22;11067;48.788;9.208;2022-12-18T07:01:24;-9.20;99.90
21811;DHT22;11067;48.788;9.208;2022-12-18T07:03:54;-9.20;99.90
21811;DHT22;11067;48.788;9.208;2022-12-18T07:06:22;-9.20;99.90
21811;DHT22;11067;48.788;9.208;2022-12-18T07:08:48;-9.30;99.90
21811;DHT22;11067;48.788;9.208;2022-12-18T07:11:15;-9.30;99.90
21811;DHT22;11067;48.788;9.208;2022-12-18T07:13:41;-9.30;99.90
21811;DHT22;11067;48.788;9.208;2022-12-18T07:16:12;-9.30;99.90
21811;DHT22;11067;48.788;9.208;2022-12-18T07:18:38;-9.30;99.90
21811;DHT22;11067;48.788;9.208;2022-12-18T07:21:08;-9.20;99.90
21811;DHT22;11067;48.788;9.208;2022-12-18T07:23:34;-9.30;99.90
21811;DHT22;11067;48.788;9.208;2022-12-18T07:26:04;-9.20;99.90
21811;DHT22;11067;48.788;9.208;2022-12-18T07:28:30;-9.30;99.90
21811;DHT22;11067;48.788;9.208;2022-12-18T07:30:55;-9.30;99.90
21811;DHT22;11067;48.788;9.208;2022-12-18T07:33:21;-9.30;99.90
21811;DHT22;11067;48.788;9.208;2022-12-18T07:35:46;-9.30;99.90
21811;DHT22;11067;48.788;9.208;2022-12-18T07:38:12;-9.30;99.90
21811;DHT22;11067;48.788;9.208;2022-12-18T07:40:37;-9.30;99.90
21811;DHT22;11067;48.788;9.208;2022-12-18T07:43:03;-9.40;99.90
21811;DHT22;11067;48.788;9.208;2022-12-18T07:45:28;-9.30;99.90
21811;DHT22;11067;48.788;9.208;2022-12-18T07:47:54;-9.20;99.90
21811;DHT22;11067;48.788;9.208;2022-12-18T07:50:19;-9.20;99.90
21811;DHT22;11067;48.788;9.208;2022-12-18T07:52:45;-9.20;99.90
21811;DHT22;11067;48.788;9.208;2022-12-18T07:55:11;-9.20;99.90
21811;DHT22;11067;48.788;9.208;2022-12-18T07:57:36;-9.20;99.90
21811;DHT22;11067;48.788;9.208;2022-12-18T08:00:02;-9.10;99.90
21811;DHT22;11067;48.788;9.208;2022-12-18T08:02:30;-9.30;99.90
21811;DHT22;11067;48.788;9.208;2022-12-18T08:04:56;-9.20;99.90
21811;DHT22;11067;48.788;9.208;2022-12-18T08:07:22;-9.20;99.90
21811;DHT22;11067;48.788;9.208;2022-12-18T08:09:47;-9.10;99.90
21811;DHT22;11067;48.788;9.208;2022-12-18T08:12:13;-9.10;99.90
21811;DHT22;11067;48.788;9.208;2022-12-18T08:14:38;-9.10;99.90
21811;DHT22;11067;48.788;9.208;2022-12-18T08:17:04;-9.00;99.90
21811;DHT22;11067;48.788;9.208;2022-12-18T08:19:29;-8.90;99.90
21811;DHT22;11067;48.788;9.208;2022-12-18T08:21:55;-8.90;99.90
21811;DHT22;11067;48.788;9.208;2022-12-18T08:24:20;-8.80;99.90
21811;DHT22;11067;48.788;9.208;2022-12-18T08:26:46;-8.80;99.90
21811;DHT22;11067;48.788;9.208;2022-12-18T08:29:11;-8.80;99.90
21811;DHT22;11067;48.788;9.208;2022-12-18T08:31:37;-8.70;99.90
21811;DHT22;11067;48.788;9.208;2022-12-18T08:34:03;-8.60;99.90
21811;DHT22;11067;48.788;9.208;2022-12-18T08:36:28;-8.50;99.90
21811;DHT22;11067;48.788;9.208;2022-12-18T08:38:54;-8.40;99.90
21811;DHT22;11067;48.788;9.208;2022-12-18T08:41:20;-8.50;99.90
21811;DHT22;11067;48.788;9.208;2022-12-18T08:43:46;-8.40;99.90
21811;DHT22;11067;48.788;9.208;2022-12-18T08:46:38;-8.30;99.90
21811;DHT22;11067;48.788;9.208;2022-12-18T08:49:05;-8.10;99.90
21811;DHT22;11067;48.788;9.208;2022-12-18T08:51:31;-8.00;99.90
21811;DHT22;11067;48.788;9.208;2022-12-18T08:53:57;-7.80;99.90
21811;DHT22;11067;48.788;9.208;2022-12-18T08:56:23;-7.90;99.90
21811;DHT22;11067;48.788;9.208;2022-12-18T08:58:54;-8.00;99.90
21811;DHT22;11067;48.788;9.208;2022-12-18T09:01:20;-7.90;99.90
21811;DHT22;11067;48.788;9.208;2022-12-18T09:03:45;-7.80;99.90
21811;DHT22;11067;48.788;9.208;2022-12-18T09:06:14;-7.80;99.90
21811;DHT22;11067;48.788;9.208;2022-12-18T09:08:41;-7.70;99.90
21811;DHT22;11067;48.788;9.208;2022-12-18T09:11:13;-7.70;99.90
21811;DHT22;11067;48.788;9.208;2022-12-18T09:13:39;-7.80;99.90
21811;DHT22;11067;48.788;9.208;2022-12-18T09:16:05;-7.70;99.90
21811;DHT22;11067;48.788;9.208;2022-12-18T09:18:30;-7.70;99.90
21811;DHT22;11067;48.788;9.208;2022-12-18T09:20:56;-7.70;99.90
21811;DHT22;11067;48.788;9.208;2022-12-18T09:23:21;-7.60;99.90
21811;DHT22;11067;48.788;9.208;2022-12-18T09:25:47;-7.40;99.90
21811;DHT22;11067;48.788;9.208;2022-12-18T09:28:14;-7.40;99.90
21811;DHT22;11067;48.788;9.208;2022-12-18T09:30:42;-7.40;99.90
21811;DHT22;11067;48.788;9.208;2022-12-18T09:33:09;-7.20;99.90
21811;DHT22;11067;48.788;9.208;2022-12-18T09:35:38;-7.10;99.90
21811;DHT22;11067;48.788;9.208;2022-12-18T09:38:04;-7.00;99.90
21811;DHT22;11067;48.788;9.208;2022-12-18T09:40:40;-6.90;99.90
21811;DHT22;11067;48.788;9.208;2022-12-18T09:43:09;-6.80;99.90
21811;DHT22;11067;48.788;9.208;2022-12-18T09:45:42;-6.70;99.90
21811;DHT22;11067;48.788;9.208;2022-12-18T14:10:49;-6.40;99.90
21811;DHT22;11067;48.788;9.208;2022-12-18T14:13:30;-1.30;99.90
21811;DHT22;11067;48.788;9.208;2022-12-18T14:15:56;-1.40;99.90
21811;DHT22;11067;48.788;9.208;2022-12-18T14:21:20;-1.50;99.90
21811;DHT22;11067;48.788;9.208;2022-12-18T14:23:46;-1.60;99.90
21811;DHT22;11067;48.788;9.208;2022-12-18T14:26:29;-1.50;99.90
21811;DHT22;11067;48.788;9.208;2022-12-18T14:28:56;-1.50;99.90
21811;DHT22;11067;48.788;9.208;2022-12-18T14:31:27;-1.60;99.90
21811;DHT22;11067;48.788;9.208;2022-12-18T14:33:54;-1.60;99.90
21811;DHT22;11067;48.788;9.208;2022-12-18T14:36:27;-1.60;99.90
21811;DHT22;11067;48.788;9.208;2022-12-18T14:38:57;-1.60;99.90
21811;DHT22;11067;48.788;9.208;2022-12-18T14:41:23;-1.70;99.90
21811;DHT22;11067;48.788;9.208;2022-12-18T14:43:51;-1.60;99.90
21811;DHT22;11067;48.788;9.208;2022-12-18T14:49:03;-1.70;99.90
21811;DHT22;11067;48.788;9.208;2022-12-18T14:51:31;-1.70;99.90
21811;DHT22;11067;48.788;9.208;2022-12-18T14:53:58;-1.70;99.90
21811;DHT22;11067;48.788;9.208;2022-12-18T14:56:36;-1.80;99.90
21811;DHT22;11067;48.788;9.208;2022-12-18T14:59:17;-1.80;99.90
21811;DHT22;11067;48.788;9.208;2022-12-18T15:01:47;-1.90;99.90
21811;DHT22;11067;48.788;9.208;2022-12-18T15:04:31;-1.90;99.90
21811;DHT22;11067;48.788;9.208;2022-12-18T15:09:36;-1.90;99.90
21811;DHT22;11067;48.788;9.208;2022-12-18T15:12:03;-1.90;99.90
21811;DHT22;11067;48.788;9.208;2022-12-18T15:14:35;-2.00;99.90
21811;DHT22;11067;48.788;9.208;2022-12-18T15:20:02;-2.10;99.90
21811;DHT22;11067;48.788;9.208;2022-12-18T15:22:35;-2.10;99.90
21811;DHT22;11067;48.788;9.208;2022-12-18T15:25:02;-2.10;99.90
21811;DHT22;11067;48.788;9.208;2022-12-18T15:27:33;-2.10;99.90
21811;DHT22;11067;48.788;9.208;2022-12-18T15:32:30;-2.20;99.90
21811;DHT22;11067;48.788;9.208;2022-12-18T15:35:16;-2.20;99.90
21811;DHT22;11067;48.788;9.208;2022-12-18T15:37:42;-2.20;99.90
21811;DHT22;11067;48.788;9.208;2022-12-18T15:40:12;-2.20;99.90
21811;DHT22;11067;48.788;9.208;2022-12-18T15:42:39;-2.20;99.90
21811;DHT22;11067;48.788;9.208;2022-12-18T15:45:23;-2.30;99.90
21811;DHT22;11067;48.788;9.208;2022-12-18T15:47:48;-2.30;99.90
21811;DHT22;11067;48.788;9.208;2022-12-18T15:50:14;-2.30;99.90
21811;DHT22;11067;48.788;9.208;2022-12-18T15:52:43;-2.30;99.90
21811;DHT22;11067;48.788;9.208;2022-12-18T15:55:15;-2.40;99.90
21811;DHT22;11067;48.788;9.208;2022-12-18T15:57:59;-2.40;99.90
21811;DHT22;11067;48.788;9.208;2022-12-18T16:00:25;-2.30;99.90
21811;DHT22;11067;48.788;9.208;2022-12-18T16:02:50;-2.40;99.90
21811;DHT22;11067;48.788;9.208;2022-12-18T16:05:17;-2.40;99.90
21811;DHT22;11067;48.788;9.208;2022-12-18T16:07:44;-2.40;99.90
21811;DHT22;11067;48.788;9.208;2022-12-18T16:10:10;-2.60;99.90
21811;DHT22;11067;48.788;9.208;2022-12-18T16:12:36;-2.60;99.90
21811;DHT22;11067;48.788;9.208;2022-12-18T16:15:03;-2.70;99.90
21811;DHT22;11067;48.788;9.208;2022-12-18T16:17:29;-2.70;99.90
21811;DHT22;11067;48.788;9.208;2022-12-18T16:19:55;-2.80;99.90
21811;DHT22;11067;48.788;9.208;2022-12-18T16:22:26;-2.70;99.90
21811;DHT22;11067;48.788;9.208;2022-12-18T16:24:54;-2.80;99.90
21811;DHT22;11067;48.788;9.208;2022-12-18T16:27:21;-2.80;99.90
21811;DHT22;11067;48.788;9.208;2022-12-18T16:29:47;-2.80;99.90
21811;DHT22;11067;48.788;9.208;2022-12-18T16:32:17;-2.80;99.90
21811;DHT22;11067;48.788;9.208;2022-12-18T16:34:44;-2.80;99.90
21811;DHT22;11067;48.788;9.208;2022-12-18T16:37:12;-2.80;99.90
21811;DHT22;11067;48.788;9.208;2022-12-18T16:39:38;-2.90;99.90
21811;DHT22;11067;48.788;9.208;2022-12-18T16:42:09;-2.90;99.90
21811;DHT22;11067;48.788;9.208;2022-12-18T16:44:35;-2.80;99.90
21811;DHT22;11067;48.788;9.208;2022-12-18T16:47:01;-2.80;99.90
21811;DHT22;11067;48.788;9.208;2022-12-18T16:49:28;-2.90;99.90
21811;DHT22;11067;48.788;9.208;2022-12-18T16:51:54;-2.80;99.90
21811;DHT22;11067;48.788;9.208;2022-12-18T16:54:19;-2.70;99.90
21811;DHT22;11067;48.788;9.208;2022-12-18T16:56:45;-2.60;99.90
21811;DHT22;11067;48.788;9.208;2022-12-18T16:59:14;-2.60;99.90
21811;DHT22;11067;48.788;9.208;2022-12-18T17:01:40;-2.60;99.90
21811;DHT22;11067;48.788;9.208;2022-12-18T17:04:06;-2.50;99.90
21811;DHT22;11067;48.788;9.208;2022-12-18T17:06:34;-2.50;99.90
21811;DHT22;11067;48.788;9.208;2022-12-18T17:09:03;-2.50;99.90
21811;DHT22;11067;48.788;9.208;2022-12-18T17:11:30;-2.50;99.90
21811;DHT22;11067;48.788;9.208;2022-12-18T17:13:56;-2.40;99.90
21811;DHT22;11067;48.788;9.208;2022-12-18T17:16:23;-2.40;99.90
21811;DHT22;11067;48.788;9.208;2022-12-18T17:18:49;-2.40;99.90
21811;DHT22;11067;48.788;9.208;2022-12-18T17:21:16;-2.40;99.90
21811;DHT22;11067;48.788;9.208;2022-12-18T17:23:43;-2.50;99.90
21811;DHT22;11067;48.788;9.208;2022-12-18T17:26:10;-2.50;99.90
21811;DHT22;11067;48.788;9.208;2022-12-18T17:28:37;-2.50;99.90
21811;DHT22;11067;48.788;9.208;2022-12-18T17:31:15;-2.60;99.90
21811;DHT22;11067;48.788;9.208;2022-12-18T17:33:41;-2.60;99.90
21811;DHT22;11067;48.788;9.208;2022-12-18T17:36:07;-2.60;99.90
21811;DHT22;11067;48.788;9.208;2022-12-18T17:38:32;-2.70;99.90
21811;DHT22;11067;48.788;9.208;2022-12-18T17:41:07;-2.70;99.90
21811;DHT22;11067;48.788;9.208;2022-12-18T17:43:33;-2.60;99.90
21811;DHT22;11067;48.788;9.208;2022-12-18T17:46:05;-2.70;99.90
21811;DHT22;11067;48.788;9.208;2022-12-18T17:48:32;-2.70;99.90
21811;DHT22;11067;48.788;9.208;2022-12-18T17:51:02;-2.60;99.90
21811;DHT22;11067;48.788;9.208;2022-12-18T17:53:28;-2.70;99.90
21811;DHT22;11067;48.788;9.208;2022-12-18T17:55:55;-2.70;99.90
21811;DHT22;11067;48.788;9.208;2022-12-18T17:58:21;-2.70;99.90
21811;DHT22;11067;48.788;9.208;2022-12-18T18:00:47;-2.60;99.90
21811;DHT22;11067;48.788;9.208;2022-12-18T18:03:13;-2.70;99.90
21811;DHT22;11067;48.788;9.208;2022-12-18T18:05:38;-2.70;99.90
21811;DHT22;11067;48.788;9.208;2022-12-18T18:08:04;-2.70;99.90
21811;DHT22;11067;48.788;9.208;2022-12-18T18:10:30;-2.70;99.90
21811;DHT22;11067;48.788;9.208;2022-12-18T18:12:57;-2.70;99.90
21811;DHT22;11067;48.788;9.208;2022-12-18T18:15:41;-2.70;99.90
21811;DHT22;11067;48.788;9.208;2022-12-18T18:18:06;-2.70;99.90
21811;DHT22;11067;48.788;9.208;2022-12-18T18:20:32;-2.70;99.90
21811;DHT22;11067;48.788;9.208;2022-12-18T18:22:58;-2.70;99.90
21811;DHT22;11067;48.788;9.208;2022-12-18T18:25:24;-2.70;99.90
21811;DHT22;11067;48.788;9.208;2022-12-18T18:27:49;-2.70;99.90
21811;DHT22;11067;48.788;9.208;2022-12-18T18:30:15;-2.70;99.90
21811;DHT22;11067;48.788;9.208;2022-12-18T18:32:40;-2.70;99.90
21811;DHT22;11067;48.788;9.208;2022-12-18T18:35:06;-2.70;99.90
21811;DHT22;11067;48.788;9.208;2022-12-18T18:37:33;-2.80;99.90
21811;DHT22;11067;48.788;9.208;2022-12-18T18:39:58;-2.70;99.90
21811;DHT22;11067;48.788;9.208;2022-12-18T18:42:24;-2.70;99.90
21811;DHT22;11067;48.788;9.208;2022-12-18T18:44:49;-2.70;99.90
21811;DHT22;11067;48.788;9.208;2022-12-18T18:47:15;-2.70;99.90
21811;DHT22;11067;48.788;9.208;2022-12-18T18:49:41;-2.70;99.90
21811;DHT22;11067;48.788;9.208;2022-12-18T18:52:06;-2.70;99.90
21811;DHT22;11067;48.788;9.208;2022-12-18T18:54:32;-2.70;99.90
21811;DHT22;11067;48.788;9.208;2022-12-18T18:56:58;-2.80;99.90
21811;DHT22;11067;48.788;9.208;2022-12-18T18:59:23;-2.70;99.90
21811;DHT22;11067;48.788;9.208;2022-12-18T19:01:49;-2.70;99.90
21811;DHT22;11067;48.788;9.208;2022-12-18T19:04:17;-2.70;99.90
21811;DHT22;11067;48.788;9.208;2022-12-18T19:06:42;-2.70;99.90
21811;DHT22;11067;48.788;9.208;2022-12-18T19:09:11;-2.70;99.90
21811;DHT22;11067;48.788;9.208;2022-12-18T19:11:37;-2.70;99.90
21811;DHT22;11067;48.788;9.208;2022-12-18T19:14:22;-2.70;99.90
21811;DHT22;11067;48.788;9.208;2022-12-18T19:16:48;-2.70;99.90
21811;DHT22;11067;48.788;9.208;2022-12-18T19:19:14;-2.70;99.90
21811;DHT22;11067;48.788;9.208;2022-12-18T19:21:42;-2.70;99.90
21811;DHT22;11067;48.788;9.208;2022-12-18T19:24:08;-2.60;99.90
21811;DHT22;11067;48.788;9.208;2022-12-18T19:26:34;-2.70;99.90
21811;DHT22;11067;48.788;9.208;2022-12-18T19:29:04;-2.70;99.90
21811;DHT22;11067;48.788;9.208;2022-12-18T19:31:31;-2.70;99.90
21811;DHT22;11067;48.788;9.208;2022-12-18T19:33:58;-2.70;99.90
21811;DHT22;11067;48.788;9.208;2022-12-18T19:36:28;-2.70;99.90
21811;DHT22;11067;48.788;9.208;2022-12-18T19:38:57;-2.70;99.90
21811;DHT22;11067;48.788;9.208;2022-12-18T19:41:23;-2.70;99.90
21811;DHT22;11067;48.788;9.208;2022-12-18T19:43:49;-2.70;99.90
21811;DHT22;11067;48.788;9.208;2022-12-18T19:46:18;-2.70;99.90
21811;DHT22;11067;48.788;9.208;2022-12-18T19:48:44;-2.60;99.90
21811;DHT22;11067;48.788;9.208;2022-12-18T19:51:20;-2.70;99.90
21811;DHT22;11067;48.788;9.208;2022-12-18T19:53:47;-2.70;99.90
21811;DHT22;11067;48.788;9.208;2022-12-18T19:56:15;-2.60;99.90
21811;DHT22;11067;48.788;9.208;2022-12-18T19:58:41;-2.60;99.90
21811;DHT22;11067;48.788;9.208;2022-12-18T20:01:07;-2.60;99.90
21811;DHT22;11067;48.788;9.208;2022-12-18T20:03:33;-2.60;99.90
21811;DHT22;11067;48.788;9.208;2022-12-18T20:06:16;-2.60;99.90
21811;DHT22;11067;48.788;9.208;2022-12-18T20:08:43;-2.50;99.90
21811;DHT22;11067;48.788;9.208;2022-12-18T20:11:09;-2.50;99.90
21811;DHT22;11067;48.788;9.208;2022-12-18T20:13:35;-2.50;99.90
21811;DHT22;11067;48.788;9.208;2022-12-18T20:16:00;-2.50;99.90
21811;DHT22;11067;48.788;9.208;2022-12-18T20:18:26;-2.50;99.90
21811;DHT22;11067;48.788;9.208;2022-12-18T20:20:52;-2.50;99.90
21811;DHT22;11067;48.788;9.208;2022-12-18T20:23:18;-2.50;99.90
21811;DHT22;11067;48.788;9.208;2022-12-18T20:25:43;-2.50;99.90
21811;DHT22;11067;48.788;9.208;2022-12-18T20:28:09;-2.50;99.90
21811;DHT22;11067;48.788;9.208;2022-12-18T20:30:35;-2.60;99.90
21811;DHT22;11067;48.788;9.208;2022-12-18T20:33:01;-2.60;99.90
21811;DHT22;11067;48.788;9.208;2022-12-18T20:35:26;-2.50;99.90
21811;DHT22;11067;48.788;9.208;2022-12-18T20:37:53;-2.60;99.90